sensor_id;sensor_type;location;lat;lon;timestamp;temperature;humidity
51988;DHT22;38003;52.012;4.346;2022-08-25T00:01:38;27.00;60.80
51988;DHT22;38003;52.012;4.346;2022-08-25T00:04:09;27.00;60.80
51988;DHT22;38003;52.012;4.346;2022-08-25T00:06:39;27.10;60.90
51988;DHT22;38003;52.012;4.346;2022-08-25T00:09:08;27.00;60.90
51988;DHT22;38003;52.012;4.346;2022-08-25T00:11:39;27.00;60.90
51988;DHT22;38003;52.012;4.346;2022-08-25T00:14:09;27.00;61.10
51988;DHT22;38003;52.012;4.346;2022-08-25T00:16:38;26.90;61.00
51988;DHT22;38003;52.012;4.346;2022-08-25T00:19:12;26.90;61.00
51988;DHT22;38003;52.012;4.346;2022-08-25T00:21:41;26.90;61.00
51988;DHT22;38003;52.012;4.346;2022-08-25T00:24:10;26.90;61.10
51988;DHT22;38003;52.012;4.346;2022-08-25T00:26:42;26.90;61.20
51988;DHT22;38003;52.012;4.346;2022-08-25T00:29:10;26.80;61.20
51988;DHT22;38003;52.012;4.346;2022-08-25T00:31:39;26.90;61.20
51988;DHT22;38003;52.012;4.346;2022-08-25T00:34:09;26.90;61.30
51988;DHT22;38003;52.012;4.346;2022-08-25T00:36:38;26.90;61.30
51988;DHT22;38003;52.012;4.346;2022-08-25T00:39:07;26.80;61.20
51988;DHT22;38003;52.012;4.346;2022-08-25T00:41:36;26.70;61.30
51988;DHT22;38003;52.012;4.346;2022-08-25T00:44:08;26.80;61.20
51988;DHT22;38003;52.012;4.346;2022-08-25T00:46:40;26.80;61.30
51988;DHT22;38003;52.012;4.346;2022-08-25T00:49:12;26.80;61.30
51988;DHT22;38003;52.012;4.346;2022-08-25T00:51:54;26.80;61.20
51988;DHT22;38003;52.012;4.346;2022-08-25T00:54:25;26.70;61.30
51988;DHT22;38003;52.012;4.346;2022-08-25T00:56:54;26.80;61.30
51988;DHT22;38003;52.012;4.346;2022-08-25T00:59:25;26.80;61.30
51988;DHT22;38003;52.012;4.346;2022-08-25T01:01:55;26.70;61.20
51988;DHT22;38003;52.012;4.346;2022-08-25T01:04:25;26.80;61.40
51988;DHT22;38003;52.012;4.346;2022-08-25T01:06:53;26.70;61.20
51988;DHT22;38003;52.012;4.346;2022-08-25T01:09:22;26.70;61.30
51988;DHT22;38003;52.012;4.346;2022-08-25T01:11:50;26.70;61.40
51988;DHT22;38003;52.012;4.346;2022-08-25T01:14:20;26.70;61.50
51988;DHT22;38003;52.012;4.346;2022-08-25T01:16:49;26.70;61.50
51988;DHT22;38003;52.012;4.346;2022-08-25T01:19:20;26.70;61.40
51988;DHT22;38003;52.012;4.346;2022-08-25T01:21:52;26.70;61.40
51988;DHT22;38003;52.012;4.346;2022-08-25T01:24:25;26.70;61.50
51988;DHT22;38003;52.012;4.346;2022-08-25T01:26:57;26.70;61.50
51988;DHT22;38003;52.012;4.346;2022-08-25T01:29:25;26.70;61.50
51988;DHT22;38003;52.012;4.346;2022-08-25T01:31:55;26.60;61.50
51988;DHT22;38003;52.012;4.346;2022-08-25T01:34:25;26.60;61.50
51988;DHT22;38003;52.012;4.346;2022-08-25T01:36:56;26.60;61.40
51988;DHT22;38003;52.012;4.346;2022-08-25T01:39:26;26.60;61.40
51988;DHT22;38003;52.012;4.346;2022-08-25T01:42:16;26.80;61.50
51988;DHT22;38003;52.012;4.346;2022-08-25T01:44:46;26.60;61.70
51988;DHT22;38003;52.012;4.346;2022-08-25T01:47:15;26.60;61.50
51988;DHT22;38003;52.012;4.346;2022-08-25T01:49:43;26.60;61.50
51988;DHT22;38003;52.012;4.346;2022-08-25T01:52:15;26.50;61.40
51988;DHT22;38003;52.012;4.346;2022-08-25T01:54:47;26.50;61.40
51988;DHT22;38003;52.012;4.346;2022-08-25T01:57:15;26.50;61.50
51988;DHT22;38003;52.012;4.346;2022-08-25T01:59:43;26.70;61.60
51988;DHT22;38003;52.012;4.346;2022-08-25T02:02:11;26.50;61.50
51988;DHT22;38003;52.012;4.346;2022-08-25T02:04:39;26.50;61.40
51988;DHT22;38003;52.012;4.346;2022-08-25T02:07:11;26.50;61.50
51988;DHT22;38003;52.012;4.346;2022-08-25T02:09:39;26.50;61.50
51988;DHT22;38003;52.012;4.346;2022-08-25T02:12:07;26.40;61.50
51988;DHT22;38003;52.012;4.346;2022-08-25T02:14:36;26.40;61.60
51988;DHT22;38003;52.012;4.346;2022-08-25T02:17:04;26.40;61.50
51988;DHT22;38003;52.012;4.346;2022-08-25T02:19:33;26.30;61.40
51988;DHT22;38003;52.012;4.346;2022-08-25T02:22:01;26.40;61.50
51988;DHT22;38003;52.012;4.346;2022-08-25T02:24:30;26.40;61.50
51988;DHT22;38003;52.012;4.346;2022-08-25T02:26:58;26.30;61.50
51988;DHT22;38003;52.012;4.346;2022-08-25T02:29:26;26.30;61.40
51988;DHT22;38003;52.012;4.346;2022-08-25T02:31:54;26.30;61.40
51988;DHT22;38003;52.012;4.346;2022-08-25T02:34:22;26.50;61.50
51988;DHT22;38003;52.012;4.346;2022-08-25T02:36:50;26.30;61.30
51988;DHT22;38003;52.012;4.346;2022-08-25T02:39:18;26.30;61.40
51988;DHT22;38003;52.012;4.346;2022-08-25T02:41:48;26.30;61.30
51988;DHT22;38003;52.012;4.346;2022-08-25T02:44:18;26.30;61.30
51988;DHT22;38003;52.012;4.346;2022-08-25T02:46:46;26.30;61.30
51988;DHT22;38003;52.012;4.346;2022-08-25T02:49:14;26.30;61.40
51988;DHT22;38003;52.012;4.346;2022-08-25T02:51:42;26.20;61.30
51988;DHT22;38003;52.012;4.346;2022-08-25T02:54:10;26.20;61.30
51988;DHT22;38003;52.012;4.346;2022-08-25T02:56:38;26.20;61.20
51988;DHT22;38003;52.012;4.346;2022-08-25T02:59:11;26.20;61.30
51988;DHT22;38003;52.012;4.346;2022-08-25T03:01:39;26.20;61.30
51988;DHT22;38003;52.012;4.346;2022-08-25T03:04:07;26.20;61.30
51988;DHT22;38003;52.012;4.346;2022-08-25T03:06:35;26.20;61.20
51988;DHT22;38003;52.012;4.346;2022-08-25T03:09:03;26.20;61.20
51988;DHT22;38003;52.012;4.346;2022-08-25T03:11:31;26.10;61.20
51988;DHT22;38003;52.012;4.346;2022-08-25T03:13:59;26.10;61.20
51988;DHT22;38003;52.012;4.346;2022-08-25T03:16:28;26.10;61.30
51988;DHT22;38003;52.012;4.346;2022-08-25T03:18:57;26.10;61.30
51988;DHT22;38003;52.012;4.346;2022-08-25T03:21:26;26.10;61.20
51988;DHT22;38003;52.012;4.346;2022-08-25T03:23:55;26.10;61.20
51988;DHT22;38003;52.012;4.346;2022-08-25T03:26:23;26.10;61.10
51988;DHT22;38003;52.012;4.346;2022-08-25T03:29:17;26.00;61.00
51988;DHT22;38003;52.012;4.346;2022-08-25T03:31:47;26.00;61.00
51988;DHT22;38003;52.012;4.346;2022-08-25T03:34:16;26.00;61.00
51988;DHT22;38003;52.012;4.346;2022-08-25T03:36:47;26.00;60.90
51988;DHT22;38003;52.012;4.346;2022-08-25T03:39:15;26.00;60.80
51988;DHT22;38003;52.012;4.346;2022-08-25T03:41:44;26.00;60.80
51988;DHT22;38003;52.012;4.346;2022-08-25T03:44:13;26.00;60.70
51988;DHT22;38003;52.012;4.346;2022-08-25T03:46:43;26.00;60.70
51988;DHT22;38003;52.012;4.346;2022-08-25T03:49:15;26.00;60.80
51988;DHT22;38003;52.012;4.346;2022-08-25T03:51:45;26.00;60.80
51988;DHT22;38003;52.012;4.346;2022-08-25T03:54:14;25.90;60.80
51988;DHT22;38003;52.012;4.346;2022-08-25T03:56:42;25.90;60.80
51988;DHT22;38003;52.012;4.346;2022-08-25T03:59:11;25.90;60.80
51988;DHT22;38003;52.012;4.346;2022-08-25T04:01:41;25.90;60.70
51988;DHT22;38003;52.012;4.346;2022-08-25T04:04:12;25.90;60.60
51988;DHT22;38003;52.012;4.346;2022-08-25T04:06:41;25.80;60.60
51988;DHT22;38003;52.012;4.346;2022-08-25T04:09:10;25.80;60.60
51988;DHT22;38003;52.012;4.346;2022-08-25T04:11:38;26.00;60.70
51988;DHT22;38003;52.012;4.346;2022-08-25T04:14:08;25.80;60.60
51988;DHT22;38003;52.012;4.346;2022-08-25T04:16:42;25.70;60.50
51988;DHT22;38003;52.012;4.346;2022-08-25T04:19:12;25.70;60.60
51988;DHT22;38003;52.012;4.346;2022-08-25T04:21:40;25.70;60.70
51988;DHT22;38003;52.012;4.346;2022-08-25T04:24:10;25.60;60.60
51988;DHT22;38003;52.012;4.346;2022-08-25T04:26:40;25.70;60.70
51988;DHT22;38003;52.012;4.346;2022-08-25T04:29:09;25.50;60.70
51988;DHT22;38003;52.012;4.346;2022-08-25T04:31:39;25.50;60.70
51988;DHT22;38003;52.012;4.346;2022-08-25T04:34:08;25.60;60.60
51988;DHT22;38003;52.012;4.346;2022-08-25T04:36:58;25.50;60.60
51988;DHT22;38003;52.012;4.346;2022-08-25T04:39:26;25.50;60.50
51988;DHT22;38003;52.012;4.346;2022-08-25T04:41:54;25.70;60.60
51988;DHT22;38003;52.012;4.346;2022-08-25T04:44:22;25.50;60.40
51988;DHT22;38003;52.012;4.346;2022-08-25T04:46:49;25.60;60.50
51988;DHT22;38003;52.012;4.346;2022-08-25T04:49:17;25.50;60.40
51988;DHT22;38003;52.012;4.346;2022-08-25T04:51:45;25.50;60.30
51988;DHT22;38003;52.012;4.346;2022-08-25T04:54:15;25.50;60.30
51988;DHT22;38003;52.012;4.346;2022-08-25T04:56:48;25.50;60.30
51988;DHT22;38003;52.012;4.346;2022-08-25T04:59:20;25.50;60.30
51988;DHT22;38003;52.012;4.346;2022-08-25T05:01:48;25.30;60.10
51988;DHT22;38003;52.012;4.346;2022-08-25T05:04:22;25.40;60.20
51988;DHT22;38003;52.012;4.346;2022-08-25T05:06:55;25.50;60.10
51988;DHT22;38003;52.012;4.346;2022-08-25T05:09:25;25.50;60.20
51988;DHT22;38003;52.012;4.346;2022-08-25T05:11:54;25.40;60.10
51988;DHT22;38003;52.012;4.346;2022-08-25T05:14:22;25.40;60.00
51988;DHT22;38003;52.012;4.346;2022-08-25T05:16:52;25.40;60.00
51988;DHT22;38003;52.012;4.346;2022-08-25T05:19:20;25.70;60.20
51988;DHT22;38003;52.012;4.346;2022-08-25T05:21:49;25.40;60.00
51988;DHT22;38003;52.012;4.346;2022-08-25T05:24:18;25.30;59.90
51988;DHT22;38003;52.012;4.346;2022-08-25T05:26:47;25.40;60.10
51988;DHT22;38003;52.012;4.346;2022-08-25T05:29:15;25.30;60.00
51988;DHT22;38003;52.012;4.346;2022-08-25T05:31:43;25.40;59.90
51988;DHT22;38003;52.012;4.346;2022-08-25T05:34:16;25.40;59.80
51988;DHT22;38003;52.012;4.346;2022-08-25T05:36:45;25.40;59.60
51988;DHT22;38003;52.012;4.346;2022-08-25T05:39:13;25.40;59.50
51988;DHT22;38003;52.012;4.346;2022-08-25T05:41:41;25.40;59.50
51988;DHT22;38003;52.012;4.346;2022-08-25T05:44:11;25.40;59.60
51988;DHT22;38003;52.012;4.346;2022-08-25T05:46:43;25.40;59.40
51988;DHT22;38003;52.012;4.346;2022-08-25T05:49:11;25.40;59.50
51988;DHT22;38003;52.012;4.346;2022-08-25T05:51:39;25.40;59.50
51988;DHT22;38003;52.012;4.346;2022-08-25T05:54:07;25.40;59.30
51988;DHT22;38003;52.012;4.346;2022-08-25T05:56:35;25.40;59.50
51988;DHT22;38003;52.012;4.346;2022-08-25T05:59:03;25.40;59.30
51988;DHT22;38003;52.012;4.346;2022-08-25T06:01:36;25.40;59.30
51988;DHT22;38003;52.012;4.346;2022-08-25T06:04:22;25.40;59.00
51988;DHT22;38003;52.012;4.346;2022-08-25T06:06:50;25.40;58.90
51988;DHT22;38003;52.012;4.346;2022-08-25T06:09:20;25.40;59.10
51988;DHT22;38003;52.012;4.346;2022-08-25T06:11:48;25.40;58.80
51988;DHT22;38003;52.012;4.346;2022-08-25T06:14:21;25.40;58.60
51988;DHT22;38003;52.012;4.346;2022-08-25T06:16:50;25.40;58.70
51988;DHT22;38003;52.012;4.346;2022-08-25T06:19:19;25.40;58.40
51988;DHT22;38003;52.012;4.346;2022-08-25T06:21:48;25.40;58.60
51988;DHT22;38003;52.012;4.346;2022-08-25T06:24:19;25.30;58.70
51988;DHT22;38003;52.012;4.346;2022-08-25T06:26:47;25.40;58.70
51988;DHT22;38003;52.012;4.346;2022-08-25T06:29:15;25.30;58.50
51988;DHT22;38003;52.012;4.346;2022-08-25T06:31:44;25.90;58.90
51988;DHT22;38003;52.012;4.346;2022-08-25T06:34:15;25.40;58.30
51988;DHT22;38003;52.012;4.346;2022-08-25T06:36:44;25.50;58.40
51988;DHT22;38003;52.012;4.346;2022-08-25T06:39:15;25.50;58.30
51988;DHT22;38003;52.012;4.346;2022-08-25T06:41:43;25.50;58.30
51988;DHT22;38003;52.012;4.346;2022-08-25T06:44:11;25.50;58.20
51988;DHT22;38003;52.012;4.346;2022-08-25T06:46:39;25.60;58.00
51988;DHT22;38003;52.012;4.346;2022-08-25T06:49:07;25.60;58.00
51988;DHT22;38003;52.012;4.346;2022-08-25T06:51:36;25.70;57.70
51988;DHT22;38003;52.012;4.346;2022-08-25T06:54:05;25.60;57.80
51988;DHT22;38003;52.012;4.346;2022-08-25T06:56:36;25.70;57.90
51988;DHT22;38003;52.012;4.346;2022-08-25T06:59:05;25.70;58.00
51988;DHT22;38003;52.012;4.346;2022-08-25T07:01:33;25.70;58.00
51988;DHT22;38003;52.012;4.346;2022-08-25T07:04:04;25.80;57.80
51988;DHT22;38003;52.012;4.346;2022-08-25T07:06:40;25.90;57.70
51988;DHT22;38003;52.012;4.346;2022-08-25T07:09:08;25.90;57.40
51988;DHT22;38003;52.012;4.346;2022-08-25T07:11:37;26.00;57.50
51988;DHT22;38003;52.012;4.346;2022-08-25T07:14:07;26.10;57.30
51988;DHT22;38003;52.012;4.346;2022-08-25T07:16:35;26.10;57.50
51988;DHT22;38003;52.012;4.346;2022-08-25T07:19:04;26.10;57.60
51988;DHT22;38003;52.012;4.346;2022-08-25T07:21:35;26.10;57.30
51988;DHT22;38003;52.012;4.346;2022-08-25T07:24:07;26.40;57.30
51988;DHT22;38003;52.012;4.346;2022-08-25T07:26:37;26.20;56.60
51988;DHT22;38003;52.012;4.346;2022-08-25T07:29:09;26.20;56.60
51988;DHT22;38003;52.012;4.346;2022-08-25T07:31:38;26.20;56.40
51988;DHT22;38003;52.012;4.346;2022-08-25T07:34:07;26.30;56.30
51988;DHT22;38003;52.012;4.346;2022-08-25T07:36:54;26.30;55.90
51988;DHT22;38003;52.012;4.346;2022-08-25T07:39:25;26.40;56.10
51988;DHT22;38003;52.012;4.346;2022-08-25T07:41:54;26.30;55.80
51988;DHT22;38003;52.012;4.346;2022-08-25T07:44:23;26.30;55.70
51988;DHT22;38003;52.012;4.346;2022-08-25T07:46:57;26.40;55.70
51988;DHT22;38003;52.012;4.346;2022-08-25T07:49:31;26.40;55.50
51988;DHT22;38003;52.012;4.346;2022-08-25T07:52:02;26.50;55.30
51988;DHT22;38003;52.012;4.346;2022-08-25T07:54:34;26.40;55.00
51988;DHT22;38003;52.012;4.346;2022-08-25T07:57:06;26.50;55.20
51988;DHT22;38003;52.012;4.346;2022-08-25T07:59:34;26.70;55.00
51988;DHT22;38003;52.012;4.346;2022-08-25T08:02:07;26.70;55.00
51988;DHT22;38003;52.012;4.346;2022-08-25T08:04:45;26.70;54.30
51988;DHT22;38003;52.012;4.346;2022-08-25T08:07:16;26.80;54.40
51988;DHT22;38003;52.012;4.346;2022-08-25T08:09:47;26.70;54.00
51988;DHT22;38003;52.012;4.346;2022-08-25T08:12:32;26.90;54.00
51988;DHT22;38003;52.012;4.346;2022-08-25T08:15:01;26.90;53.90
51988;DHT22;38003;52.012;4.346;2022-08-25T08:17:37;26.90;53.80
51988;DHT22;38003;52.012;4.346;2022-08-25T08:20:06;27.10;53.80
51988;DHT22;38003;52.012;4.346;2022-08-25T08:22:35;27.10;53.60
51988;DHT22;38003;52.012;4.346;2022-08-25T08:25:08;27.10;53.20
51988;DHT22;38003;52.012;4.346;2022-08-25T08:27:39;27.20;52.90
51988;DHT22;38003;52.012;4.346;2022-08-25T08:30:10;27.20;53.20
51988;DHT22;38003;52.012;4.346;2022-08-25T08:32:38;27.40;52.70
51988;DHT22;38003;52.012;4.346;2022-08-25T08:35:26;27.50;52.30
51988;DHT22;38003;52.012;4.346;2022-08-25T08:37:54;27.50;52.50
51988;DHT22;38003;52.012;4.346;2022-08-25T08:40:24;27.70;52.30
51988;DHT22;38003;52.012;4.346;2022-08-25T08:43:01;27.70;51.10
51988;DHT22;38003;52.012;4.346;2022-08-25T08:45:47;27.70;50.50
51988;DHT22;38003;52.012;4.346;2022-08-25T08:48:28;27.70;51.10
51988;DHT22;38003;52.012;4.346;2022-08-25T08:51:09;27.80;51.00
51988;DHT22;38003;52.012;4.346;2022-08-25T08:53:47;27.90;49.40
51988;DHT22;38003;52.012;4.346;2022-08-25T08:56:20;27.90;49.90
51988;DHT22;38003;52.012;4.346;2022-08-25T08:58:58;27.90;48.60
51988;DHT22;38003;52.012;4.346;2022-08-25T09:01:34;28.00;49.00
51988;DHT22;38003;52.012;4.346;2022-08-25T09:04:10;28.10;49.90
51988;DHT22;38003;52.012;4.346;2022-08-25T09:06:42;28.20;49.90
51988;DHT22;38003;52.012;4.346;2022-08-25T09:09:12;28.40;49.90
51988;DHT22;38003;52.012;4.346;2022-08-25T09:11:53;28.60;49.40
51988;DHT22;38003;52.012;4.346;2022-08-25T09:14:36;28.40;48.60
51988;DHT22;38003;52.012;4.346;2022-08-25T09:17:12;28.50;48.40
51988;DHT22;38003;52.012;4.346;2022-08-25T09:20:02;28.50;48.90
51988;DHT22;38003;52.012;4.346;2022-08-25T09:22:53;28.60;48.50
51988;DHT22;38003;52.012;4.346;2022-08-25T09:25:41;28.60;47.30
51988;DHT22;38003;52.012;4.346;2022-08-25T09:28:27;28.70;47.70
51988;DHT22;38003;52.012;4.346;2022-08-25T09:30:59;28.80;48.50
51988;DHT22;38003;52.012;4.346;2022-08-25T09:33:29;28.90;48.60
51988;DHT22;38003;52.012;4.346;2022-08-25T09:36:02;29.00;48.60
51988;DHT22;38003;52.012;4.346;2022-08-25T09:38:34;29.10;48.80
51988;DHT22;38003;52.012;4.346;2022-08-25T09:41:04;29.10;48.00
51988;DHT22;38003;52.012;4.346;2022-08-25T09:43:35;29.20;48.40
51988;DHT22;38003;52.012;4.346;2022-08-25T09:46:10;29.20;47.30
51988;DHT22;38003;52.012;4.346;2022-08-25T09:48:44;29.30;46.70
51988;DHT22;38003;52.012;4.346;2022-08-25T09:51:25;29.30;47.20
51988;DHT22;38003;52.012;4.346;2022-08-25T09:53:54;29.50;48.00
51988;DHT22;38003;52.012;4.346;2022-08-25T09:56:25;29.60;46.50
51988;DHT22;38003;52.012;4.346;2022-08-25T09:58:56;29.70;46.60
51988;DHT22;38003;52.012;4.346;2022-08-25T10:01:47;29.80;46.60
51988;DHT22;38003;52.012;4.346;2022-08-25T10:04:24;30.00;46.80
51988;DHT22;38003;52.012;4.346;2022-08-25T10:06:53;30.10;46.10
51988;DHT22;38003;52.012;4.346;2022-08-25T10:09:26;30.20;46.50
51988;DHT22;38003;52.012;4.346;2022-08-25T10:11:55;30.30;46.20
51988;DHT22;38003;52.012;4.346;2022-08-25T10:14:32;30.40;45.70
51988;DHT22;38003;52.012;4.346;2022-08-25T10:17:15;30.40;45.70
51988;DHT22;38003;52.012;4.346;2022-08-25T10:19:55;30.60;45.60
51988;DHT22;38003;52.012;4.346;2022-08-25T10:22:39;30.60;44.80
51988;DHT22;38003;52.012;4.346;2022-08-25T10:25:10;30.70;46.10
51988;DHT22;38003;52.012;4.346;2022-08-25T10:27:46;30.90;45.50
51988;DHT22;38003;52.012;4.346;2022-08-25T10:30:23;30.90;43.60
51988;DHT22;38003;52.012;4.346;2022-08-25T10:33:08;30.90;44.60
51988;DHT22;38003;52.012;4.346;2022-08-25T10:35:47;31.10;44.70
51988;DHT22;38003;52.012;4.346;2022-08-25T10:38:37;31.10;42.50
51988;DHT22;38003;52.012;4.346;2022-08-25T10:41:26;31.10;41.50
51988;DHT22;38003;52.012;4.346;2022-08-25T10:44:05;31.20;41.00
51988;DHT22;38003;52.012;4.346;2022-08-25T10:47:09;31.30;41.00
51988;DHT22;38003;52.012;4.346;2022-08-25T10:49:44;31.40;40.00
51988;DHT22;38003;52.012;4.346;2022-08-25T10:52:22;31.60;42.50
51988;DHT22;38003;52.012;4.346;2022-08-25T10:54:57;31.70;38.00
51988;DHT22;38003;52.012;4.346;2022-08-25T10:57:33;31.70;42.40
51988;DHT22;38003;52.012;4.346;2022-08-25T11:00:06;31.70;42.20
51988;DHT22;38003;52.012;4.346;2022-08-25T11:02:59;31.50;41.90
51988;DHT22;38003;52.012;4.346;2022-08-25T11:05:34;31.50;43.20
51988;DHT22;38003;52.012;4.346;2022-08-25T11:08:09;31.60;42.70
51988;DHT22;38003;52.012;4.346;2022-08-25T11:10:43;31.50;41.20
51988;DHT22;38003;52.012;4.346;2022-08-25T11:13:21;31.40;41.10
51988;DHT22;38003;52.012;4.346;2022-08-25T11:15:54;31.40;41.20
51988;DHT22;38003;52.012;4.346;2022-08-25T11:18:49;31.40;41.90
51988;DHT22;38003;52.012;4.346;2022-08-25T11:21:22;31.50;42.20
51988;DHT22;38003;52.012;4.346;2022-08-25T11:23:56;31.60;42.60
51988;DHT22;38003;52.012;4.346;2022-08-25T11:26:27;31.70;42.10
51988;DHT22;38003;52.012;4.346;2022-08-25T11:29:05;31.60;42.10
51988;DHT22;38003;52.012;4.346;2022-08-25T11:31:39;31.40;41.20
51988;DHT22;38003;52.012;4.346;2022-08-25T11:34:11;31.20;41.20
51988;DHT22;38003;52.012;4.346;2022-08-25T11:36:49;31.10;41.30
51988;DHT22;38003;52.012;4.346;2022-08-25T11:39:28;31.00;41.40
51988;DHT22;38003;52.012;4.346;2022-08-25T11:42:07;31.10;42.20
51988;DHT22;38003;52.012;4.346;2022-08-25T11:44:47;31.20;41.60
51988;DHT22;38003;52.012;4.346;2022-08-25T11:47:32;31.50;42.30
51988;DHT22;38003;52.012;4.346;2022-08-25T11:50:08;31.50;42.40
51988;DHT22;38003;52.012;4.346;2022-08-25T11:52:51;31.60;42.70
51988;DHT22;38003;52.012;4.346;2022-08-25T11:55:26;31.80;42.40
51988;DHT22;38003;52.012;4.346;2022-08-25T11:58:31;32.00;43.20
51988;DHT22;38003;52.012;4.346;2022-08-25T12:01:01;32.10;42.20
51988;DHT22;38003;52.012;4.346;2022-08-25T12:03:49;32.30;42.80
51988;DHT22;38003;52.012;4.346;2022-08-25T12:06:25;32.40;42.70
51988;DHT22;38003;52.012;4.346;2022-08-25T12:09:19;32.60;42.80
51988;DHT22;38003;52.012;4.346;2022-08-25T12:11:55;32.80;43.40
51988;DHT22;38003;52.012;4.346;2022-08-25T12:14:45;32.90;42.30
51988;DHT22;38003;52.012;4.346;2022-08-25T12:17:20;32.80;42.20
51988;DHT22;38003;52.012;4.346;2022-08-25T12:19:55;32.90;41.90
51988;DHT22;38003;52.012;4.346;2022-08-25T12:22:53;32.90;41.50
51988;DHT22;38003;52.012;4.346;2022-08-25T12:25:44;32.80;40.30
51988;DHT22;38003;52.012;4.346;2022-08-25T12:28:35;33.00;39.70
51988;DHT22;38003;52.012;4.346;2022-08-25T12:31:16;32.90;41.20
51988;DHT22;38003;52.012;4.346;2022-08-25T12:33:55;33.00;42.60
51988;DHT22;38003;52.012;4.346;2022-08-25T12:36:27;33.10;42.90
51988;DHT22;38003;52.012;4.346;2022-08-25T12:39:16;33.30;43.30
51988;DHT22;38003;52.012;4.346;2022-08-25T12:41:57;33.30;42.90
51988;DHT22;38003;52.012;4.346;2022-08-25T12:44:35;33.50;43.20
51988;DHT22;38003;52.012;4.346;2022-08-25T12:47:10;33.50;43.20
51988;DHT22;38003;52.012;4.346;2022-08-25T12:49:39;33.50;43.40
51988;DHT22;38003;52.012;4.346;2022-08-25T12:52:12;33.50;43.50
51988;DHT22;38003;52.012;4.346;2022-08-25T12:54:48;33.50;43.60
51988;DHT22;38003;52.012;4.346;2022-08-25T12:57:27;33.70;43.70
51988;DHT22;38003;52.012;4.346;2022-08-25T13:00:00;33.70;43.50
51988;DHT22;38003;52.012;4.346;2022-08-25T13:02:47;33.60;43.60
51988;DHT22;38003;52.012;4.346;2022-08-25T13:05:46;33.60;42.40
51988;DHT22;38003;52.012;4.346;2022-08-25T13:08:45;33.70;42.50
51988;DHT22;38003;52.012;4.346;2022-08-25T13:11:23;33.80;43.80
51988;DHT22;38003;52.012;4.346;2022-08-25T13:14:03;33.80;42.90
51988;DHT22;38003;52.012;4.346;2022-08-25T13:16:33;34.00;44.00
51988;DHT22;38003;52.012;4.346;2022-08-25T13:19:04;34.10;43.40
51988;DHT22;38003;52.012;4.346;2022-08-25T13:21:35;34.30;43.40
51988;DHT22;38003;52.012;4.346;2022-08-25T13:24:06;34.40;43.60
51988;DHT22;38003;52.012;4.346;2022-08-25T13:26:39;34.40;42.90
51988;DHT22;38003;52.012;4.346;2022-08-25T13:29:18;34.40;41.80
51988;DHT22;38003;52.012;4.346;2022-08-25T13:31:54;34.50;42.00
51988;DHT22;38003;52.012;4.346;2022-08-25T13:34:24;34.40;39.70
51988;DHT22;38003;52.012;4.346;2022-08-25T13:37:04;34.10;40.70
51988;DHT22;38003;52.012;4.346;2022-08-25T13:40:03;33.90;40.40
51988;DHT22;38003;52.012;4.346;2022-08-25T13:42:38;34.10;42.20
51988;DHT22;38003;52.012;4.346;2022-08-25T13:45:13;33.90;42.30
51988;DHT22;38003;52.012;4.346;2022-08-25T13:47:42;34.00;43.00
51988;DHT22;38003;52.012;4.346;2022-08-25T13:50:17;34.20;43.60
51988;DHT22;38003;52.012;4.346;2022-08-25T13:52:48;34.20;43.60
51988;DHT22;38003;52.012;4.346;2022-08-25T13:55:23;34.20;43.60
51988;DHT22;38003;52.012;4.346;2022-08-25T13:57:56;34.20;43.70
51988;DHT22;38003;52.012;4.346;2022-08-25T14:00:29;34.30;43.60
51988;DHT22;38003;52.012;4.346;2022-08-25T14:03:00;34.20;42.90
51988;DHT22;38003;52.012;4.346;2022-08-25T14:05:40;34.10;43.90
51988;DHT22;38003;52.012;4.346;2022-08-25T14:08:27;34.10;44.20
51988;DHT22;38003;52.012;4.346;2022-08-25T14:11:05;34.10;43.90
51988;DHT22;38003;52.012;4.346;2022-08-25T14:13:43;34.10;43.80
51988;DHT22;38003;52.012;4.346;2022-08-25T14:16:14;34.00;44.30
51988;DHT22;38003;52.012;4.346;2022-08-25T14:18:48;34.00;44.10
51988;DHT22;38003;52.012;4.346;2022-08-25T14:21:19;33.90;44.50
51988;DHT22;38003;52.012;4.346;2022-08-25T14:23:49;33.90;44.50
51988;DHT22;38003;52.012;4.346;2022-08-25T14:26:18;33.60;44.80
51988;DHT22;38003;52.012;4.346;2022-08-25T14:28:48;33.40;45.60
51988;DHT22;38003;52.012;4.346;2022-08-25T14:31:20;33.40;46.00
51988;DHT22;38003;52.012;4.346;2022-08-25T14:33:53;33.40;46.10
51988;DHT22;38003;52.012;4.346;2022-08-25T14:36:22;33.00;46.40
51988;DHT22;38003;52.012;4.346;2022-08-25T14:38:50;32.70;47.30
51988;DHT22;38003;52.012;4.346;2022-08-25T14:41:20;32.70;47.40
51988;DHT22;38003;52.012;4.346;2022-08-25T14:43:51;32.30;47.90
51988;DHT22;38003;52.012;4.346;2022-08-25T14:46:21;32.30;47.90
51988;DHT22;38003;52.012;4.346;2022-08-25T14:48:52;32.10;48.40
51988;DHT22;38003;52.012;4.346;2022-08-25T14:51:23;31.70;48.90
51988;DHT22;38003;52.012;4.346;2022-08-25T14:53:53;31.60;49.30
51988;DHT22;38003;52.012;4.346;2022-08-25T14:56:22;31.40;50.00
51988;DHT22;38003;52.012;4.346;2022-08-25T14:58:54;31.30;50.00
51988;DHT22;38003;52.012;4.346;2022-08-25T15:01:26;31.10;50.30
51988;DHT22;38003;52.012;4.346;2022-08-25T15:03:59;31.20;50.40
51988;DHT22;38003;52.012;4.346;2022-08-25T15:06:29;30.80;50.70
51988;DHT22;38003;52.012;4.346;2022-08-25T15:08:57;30.60;50.80
51988;DHT22;38003;52.012;4.346;2022-08-25T15:11:40;30.20;51.50
51988;DHT22;38003;52.012;4.346;2022-08-25T15:14:12;30.20;51.70
51988;DHT22;38003;52.012;4.346;2022-08-25T15:16:44;30.40;51.60
51988;DHT22;38003;52.012;4.346;2022-08-25T15:19:16;30.20;52.00
51988;DHT22;38003;52.012;4.346;2022-08-25T15:21:46;30.20;51.70
51988;DHT22;38003;52.012;4.346;2022-08-25T15:24:15;30.20;51.90
51988;DHT22;38003;52.012;4.346;2022-08-25T15:26:47;30.10;52.00
51988;DHT22;38003;52.012;4.346;2022-08-25T15:29:23;30.20;51.70
51988;DHT22;38003;52.012;4.346;2022-08-25T15:31:53;29.90;52.40
51988;DHT22;38003;52.012;4.346;2022-08-25T15:34:22;29.90;52.20
51988;DHT22;38003;52.012;4.346;2022-08-25T15:36:50;30.10;52.40
51988;DHT22;38003;52.012;4.346;2022-08-25T15:39:18;29.30;53.60
51988;DHT22;38003;52.012;4.346;2022-08-25T15:41:47;29.20;53.40
51988;DHT22;38003;52.012;4.346;2022-08-25T15:44:18;29.10;53.50
51988;DHT22;38003;52.012;4.346;2022-08-25T15:46:52;29.10;53.50
51988;DHT22;38003;52.012;4.346;2022-08-25T15:49:22;29.10;53.70
51988;DHT22;38003;52.012;4.346;2022-08-25T15:51:50;29.10;53.30
51988;DHT22;38003;52.012;4.346;2022-08-25T15:54:20;29.20;53.30
51988;DHT22;38003;52.012;4.346;2022-08-25T15:56:48;29.10;53.40
51988;DHT22;38003;52.012;4.346;2022-08-25T15:59:18;29.10;53.10
51988;DHT22;38003;52.012;4.346;2022-08-25T16:01:48;29.20;53.00
51988;DHT22;38003;52.012;4.346;2022-08-25T16:04:21;29.10;54.40
51988;DHT22;38003;52.012;4.346;2022-08-25T16:06:50;29.10;53.50